sensor_id;sensor_type;location;lat;lon;timestamp;pressure;altitude;pressure_sealevel;temperature
40624;BMP280;26325;48.594;11.650;2023-01-29T00:01:54;97649.28;;;1.37
40624;BMP280;26325;48.594;11.650;2023-01-29T00:04:25;97648.66;;;1.35
40624;BMP280;26325;48.594;11.650;2023-01-29T00:07:03;97650.06;;;1.30
40624;BMP280;26325;48.594;11.650;2023-01-29T00:09:31;97652.78;;;1.36
40624;BMP280;26325;48.594;11.650;2023-01-29T00:11:58;97654.53;;;1.36
40624;BMP280;26325;48.594;11.650;2023-01-29T00:14:25;97647.50;;;1.38
40624;BMP280;26325;48.594;11.650;2023-01-29T00:16:55;97649.44;;;1.44
40624;BMP280;26325;48.594;11.650;2023-01-29T00:19:23;97649.59;;;1.42
40624;BMP280;26325;48.594;11.650;2023-01-29T00:21:49;97638.16;;;1.46
40624;BMP280;26325;48.594;11.650;2023-01-29T00:24:14;97643.53;;;1.51
40624;BMP280;26325;48.594;11.650;2023-01-29T00:26:43;97640.84;;;1.52
40624;BMP280;26325;48.594;11.650;2023-01-29T00:29:08;97643.25;;;1.54
40624;BMP280;26325;48.594;11.650;2023-01-29T00:31:37;97636.69;;;1.59
40624;BMP280;26325;48.594;11.650;2023-01-29T00:34:06;97630.00;;;1.58
40624;BMP280;26325;48.594;11.650;2023-01-29T00:36:32;97645.59;;;1.55
40624;BMP280;26325;48.594;11.650;2023-01-29T00:39:00;97637.34;;;1.53
40624;BMP280;26325;48.594;11.650;2023-01-29T00:41:30;97638.16;;;1.54
40624;BMP280;26325;48.594;11.650;2023-01-29T00:44:20;97632.72;;;1.57
40624;BMP280;26325;48.594;11.650;2023-01-29T00:47:05;97636.56;;;1.53
40624;BMP280;26325;48.594;11.650;2023-01-29T00:49:56;97637.66;;;1.58
40624;BMP280;26325;48.594;11.650;2023-01-29T00:52:22;97629.84;;;1.60
40624;BMP280;26325;48.594;11.650;2023-01-29T00:54:48;97628.09;;;1.60
40624;BMP280;26325;48.594;11.650;2023-01-29T00:57:15;97633.84;;;1.62
40624;BMP280;26325;48.594;11.650;2023-01-29T00:59:40;97637.34;;;1.61
40624;BMP280;26325;48.594;11.650;2023-01-29T01:02:07;97631.59;;;1.59
40624;BMP280;26325;48.594;11.650;2023-01-29T01:04:51;97639.88;;;1.61
40624;BMP280;26325;48.594;11.650;2023-01-29T01:07:17;97634.78;;;1.61
40624;BMP280;26325;48.594;11.650;2023-01-29T01:09:51;97633.50;;;1.57
40624;BMP280;26325;48.594;11.650;2023-01-29T01:12:35;97630.66;;;1.52
40624;BMP280;26325;48.594;11.650;2023-01-29T01:15:00;97630.97;;;1.57
40624;BMP280;26325;48.594;11.650;2023-01-29T01:17:26;97639.56;;;1.56
40624;BMP280;26325;48.594;11.650;2023-01-29T01:19:52;97643.69;;;1.57
40624;BMP280;26325;48.594;11.650;2023-01-29T01:22:17;97638.59;;;1.57
40624;BMP280;26325;48.594;11.650;2023-01-29T01:24:43;97637.00;;;1.56
40624;BMP280;26325;48.594;11.650;2023-01-29T01:27:08;97630.31;;;1.55
40624;BMP280;26325;48.594;11.650;2023-01-29T01:29:34;97630.97;;;1.57
40624;BMP280;26325;48.594;11.650;2023-01-29T01:32:00;97634.00;;;1.61
40624;BMP280;26325;48.594;11.650;2023-01-29T01:34:26;97619.19;;;1.56
40624;BMP280;26325;48.594;11.650;2023-01-29T01:36:54;97626.03;;;1.56
40624;BMP280;26325;48.594;11.650;2023-01-29T01:39:21;97619.19;;;1.56
40624;BMP280;26325;48.594;11.650;2023-01-29T01:41:54;97615.03;;;1.55
40624;BMP280;26325;48.594;11.650;2023-01-29T01:44:58;97620.13;;;1.55
40624;BMP280;26325;48.594;11.650;2023-01-29T01:47:51;97622.69;;;1.55
40624;BMP280;26325;48.594;11.650;2023-01-29T01:53:10;97625.56;;;1.52
40624;BMP280;26325;48.594;11.650;2023-01-29T01:55:42;97625.88;;;1.57
40624;BMP280;26325;48.594;11.650;2023-01-29T02:01:18;97625.56;;;1.52
40624;BMP280;26325;48.594;11.650;2023-01-29T02:04:15;97630.31;;;1.55
40624;BMP280;26325;48.594;11.650;2023-01-29T02:07:02;97613.94;;;1.58
40624;BMP280;26325;48.594;11.650;2023-01-29T02:10:14;97613.47;;;1.54
40624;BMP280;26325;48.594;11.650;2023-01-29T02:12:40;97608.38;;;1.47
40624;BMP280;26325;48.594;11.650;2023-01-29T02:15:07;97610.63;;;1.34
40624;BMP280;26325;48.594;11.650;2023-01-29T02:17:34;97606.97;;;1.29
40624;BMP280;26325;48.594;11.650;2023-01-29T02:20:19;97618.09;;;1.35
40624;BMP280;26325;48.594;11.650;2023-01-29T02:23:42;97611.72;;;1.32
40624;BMP280;26325;48.594;11.650;2023-01-29T02:29:12;97617.28;;;1.04
40624;BMP280;26325;48.594;11.650;2023-01-29T02:32:22;97614.13;;;1.17
40624;BMP280;26325;48.594;11.650;2023-01-29T02:35:14;97618.25;;;1.26
40624;BMP280;26325;48.594;11.650;2023-01-29T02:38:17;97609.03;;;1.33
40624;BMP280;26325;48.594;11.650;2023-01-29T02:40:52;97612.53;;;1.40
40624;BMP280;26325;48.594;11.650;2023-01-29T02:43:46;97602.66;;;1.45
40624;BMP280;26325;48.594;11.650;2023-01-29T02:49:07;97619.50;;;1.38
40624;BMP280;26325;48.594;11.650;2023-01-29T02:51:45;97622.69;;;1.40
40624;BMP280;26325;48.594;11.650;2023-01-29T02:54:30;97623.66;;;1.39
40624;BMP280;26325;48.594;11.650;2023-01-29T02:56:59;97632.88;;;1.40
40624;BMP280;26325;48.594;11.650;2023-01-29T02:59:38;97622.69;;;1.40
40624;BMP280;26325;48.594;11.650;2023-01-29T03:02:10;97620.16;;;1.40
40624;BMP280;26325;48.594;11.650;2023-01-29T03:04:43;97620.16;;;1.40
40624;BMP280;26325;48.594;11.650;2023-01-29T03:07:17;97626.53;;;1.44
40624;BMP280;26325;48.594;11.650;2023-01-29T03:10:15;97613.31;;;1.40
40624;BMP280;26325;48.594;11.650;2023-01-29T03:12:43;97615.06;;;1.40
40624;BMP280;26325;48.594;11.650;2023-01-29T03:15:15;97606.97;;;1.36
40624;BMP280;26325;48.594;11.650;2023-01-29T03:20:25;97619.84;;;1.43
40624;BMP280;26325;48.594;11.650;2023-01-29T03:23:03;97612.53;;;1.40
40624;BMP280;26325;48.594;11.650;2023-01-29T03:25:31;97609.16;;;1.39
40624;BMP280;26325;48.594;11.650;2023-01-29T03:28:17;97616.50;;;1.34
40624;BMP280;26325;48.594;11.650;2023-01-29T03:31:06;97615.72;;;1.34
40624;BMP280;26325;48.594;11.650;2023-01-29T03:34:17;97608.72;;;1.36
40624;BMP280;26325;48.594;11.650;2023-01-29T03:37:21;97609.66;;;1.35
40624;BMP280;26325;48.594;11.650;2023-01-29T03:39:49;97611.56;;;1.41
40624;BMP280;26325;48.594;11.650;2023-01-29T03:53:52;97615.69;;;1.42
40624;BMP280;26325;48.594;11.650;2023-01-29T03:59:17;97626.03;;;1.40
40624;BMP280;26325;48.594;11.650;2023-01-29T04:01:53;97625.59;;;1.37
40624;BMP280;26325;48.594;11.650;2023-01-29T04:04:26;97623.81;;;1.30
40624;BMP280;26325;48.594;11.650;2023-01-29T04:06:56;97621.75;;;1.33
40624;BMP280;26325;48.594;11.650;2023-01-29T04:09:36;97636.06;;;1.34
40624;BMP280;26325;48.594;11.650;2023-01-29T04:12:10;97631.00;;;1.34
40624;BMP280;26325;48.594;11.650;2023-01-29T04:14:37;97626.53;;;1.28
40624;BMP280;26325;48.594;11.650;2023-01-29T04:19:41;97624.00;;;1.28
40624;BMP280;26325;48.594;11.650;2023-01-29T04:22:27;97624.16;;;1.34
40624;BMP280;26325;48.594;11.650;2023-01-29T04:24:54;97622.06;;;1.38
40624;BMP280;26325;48.594;11.650;2023-01-29T04:33:48;97609.81;;;1.33
40624;BMP280;26325;48.594;11.650;2023-01-29T04:36:43;97620.00;;;1.33
40624;BMP280;26325;48.594;11.650;2023-01-29T04:39:17;97620.81;;;1.34
40624;BMP280;26325;48.594;11.650;2023-01-29T04:42:12;97617.63;;;1.32
40624;BMP280;26325;48.594;11.650;2023-01-29T04:50:37;97620.81;;;1.34
40624;BMP280;26325;48.594;11.650;2023-01-29T04:53:17;97624.28;;;1.33
40624;BMP280;26325;48.594;11.650;2023-01-29T04:55:58;97632.88;;;1.32
40624;BMP280;26325;48.594;11.650;2023-01-29T04:58:36;97618.91;;;1.36
40624;BMP280;26325;48.594;11.650;2023-01-29T05:01:09;97631.47;;;1.37
40624;BMP280;26325;48.594;11.650;2023-01-29T05:03:39;97639.56;;;1.33
40624;BMP280;26325;48.594;11.650;2023-01-29T05:06:08;97641.16;;;1.18
40624;BMP280;26325;48.594;11.650;2023-01-29T05:08:36;97634.00;;;1.22
40624;BMP280;26325;48.594;11.650;2023-01-29T05:11:05;97641.00;;;1.20
40624;BMP280;26325;48.594;11.650;2023-01-29T05:13:32;97640.03;;;1.21
40624;BMP280;26325;48.594;11.650;2023-01-29T05:16:07;97656.09;;;1.21
40624;BMP280;26325;48.594;11.650;2023-01-29T05:18:35;97647.50;;;1.22
40624;BMP280;26325;48.594;11.650;2023-01-29T05:21:06;97635.75;;;1.21
40624;BMP280;26325;48.594;11.650;2023-01-29T05:23:33;97633.38;;;1.20
40624;BMP280;26325;48.594;11.650;2023-01-29T05:25:58;97644.03;;;1.23
40624;BMP280;26325;48.594;11.650;2023-01-29T05:28:26;97640.03;;;1.21
40624;BMP280;26325;48.594;11.650;2023-01-29T05:30:54;97646.72;;;1.22
40624;BMP280;26325;48.594;11.650;2023-01-29T05:33:27;97639.56;;;1.17
40624;BMP280;26325;48.594;11.650;2023-01-29T05:35:53;97637.34;;;1.14
40624;BMP280;26325;48.594;11.650;2023-01-29T05:38:20;97643.88;;;1.17
40624;BMP280;26325;48.594;11.650;2023-01-29T05:40:46;97635.28;;;1.18
40624;BMP280;26325;48.594;11.650;2023-01-29T05:43:20;97634.47;;;1.17
40624;BMP280;26325;48.594;11.650;2023-01-29T05:45:58;97627.66;;;1.18
40624;BMP280;26325;48.594;11.650;2023-01-29T05:48:26;97635.44;;;1.16
40624;BMP280;26325;48.594;11.650;2023-01-29T05:53:18;97629.41;;;1.17
40624;BMP280;26325;48.594;11.650;2023-01-29T05:55:48;97627.00;;;1.16
40624;BMP280;26325;48.594;11.650;2023-01-29T05:58:13;97630.81;;;1.12
40624;BMP280;26325;48.594;11.650;2023-01-29T06:00:40;97628.28;;;1.20
40624;BMP280;26325;48.594;11.650;2023-01-29T06:03:05;97624.16;;;1.19
40624;BMP280;26325;48.594;11.650;2023-01-29T06:05:31;97624.31;;;1.17
40624;BMP280;26325;48.594;11.650;2023-01-29T06:07:57;97615.38;;;1.21
40624;BMP280;26325;48.594;11.650;2023-01-29T06:10:22;97624.31;;;1.17
40624;BMP280;26325;48.594;11.650;2023-01-29T06:12:48;97625.91;;;1.18
40624;BMP280;26325;48.594;11.650;2023-01-29T06:15:13;97627.50;;;1.12
40624;BMP280;26325;48.594;11.650;2023-01-29T06:17:44;97640.53;;;1.16
40624;BMP280;26325;48.594;11.650;2023-01-29T06:20:10;97632.88;;;1.09
40624;BMP280;26325;48.594;11.650;2023-01-29T06:22:35;97632.25;;;1.07
40624;BMP280;26325;48.594;11.650;2023-01-29T06:25:01;97643.06;;;1.01
40624;BMP280;26325;48.594;11.650;2023-01-29T06:27:27;97634.78;;;0.99
40624;BMP280;26325;48.594;11.650;2023-01-29T06:29:57;97635.09;;;0.96
40624;BMP280;26325;48.594;11.650;2023-01-29T06:32:25;97628.91;;;0.98
40624;BMP280;26325;48.594;11.650;2023-01-29T06:34:51;97625.56;;;0.98
40624;BMP280;26325;48.594;11.650;2023-01-29T06:37:17;97628.09;;;0.98
40624;BMP280;26325;48.594;11.650;2023-01-29T06:39:43;97627.94;;;0.99
40624;BMP280;26325;48.594;11.650;2023-01-29T06:42:13;97630.66;;;1.06
40624;BMP280;26325;48.594;11.650;2023-01-29T06:44:39;97629.09;;;1.20
40624;BMP280;26325;48.594;11.650;2023-01-29T06:47:07;97620.47;;;1.06
40624;BMP280;26325;48.594;11.650;2023-01-29T06:49:33;97613.31;;;1.01
40624;BMP280;26325;48.594;11.650;2023-01-29T06:51:59;97607.44;;;1.01
40624;BMP280;26325;48.594;11.650;2023-01-29T06:54:24;97609.19;;;1.00
40624;BMP280;26325;48.594;11.650;2023-01-29T06:56:50;97607.44;;;1.01
40624;BMP280;26325;48.594;11.650;2023-01-29T06:59:21;97603.44;;;1.06
40624;BMP280;26325;48.594;11.650;2023-01-29T07:01:46;97603.59;;;0.89
40624;BMP280;26325;48.594;11.650;2023-01-29T07:04:12;97611.69;;;0.77
40624;BMP280;26325;48.594;11.650;2023-01-29T07:06:38;97607.72;;;0.82
40624;BMP280;26325;48.594;11.650;2023-01-29T07:09:04;97616.31;;;0.81
40624;BMP280;26325;48.594;11.650;2023-01-29T07:11:33;97610.28;;;0.82
40624;BMP280;26325;48.594;11.650;2023-01-29T07:13:59;97611.88;;;0.83
40624;BMP280;26325;48.594;11.650;2023-01-29T07:16:24;97609.00;;;0.86
40624;BMP280;26325;48.594;11.650;2023-01-29T07:18:50;97612.81;;;0.98
40624;BMP280;26325;48.594;11.650;2023-01-29T07:21:16;97624.75;;;0.90
40624;BMP280;26325;48.594;11.650;2023-01-29T07:23:41;97625.25;;;0.93
40624;BMP280;26325;48.594;11.650;2023-01-29T07:26:07;97622.06;;;0.99
40624;BMP280;26325;48.594;11.650;2023-01-29T07:28:37;97622.69;;;1.01
40624;BMP280;26325;48.594;11.650;2023-01-29T07:31:05;97616.03;;;1.08
40624;BMP280;26325;48.594;11.650;2023-01-29T07:33:32;97629.38;;;1.10
40624;BMP280;26325;48.594;11.650;2023-01-29T07:35:58;97631.78;;;1.19
40624;BMP280;26325;48.594;11.650;2023-01-29T07:38:24;97623.50;;;1.17
40624;BMP280;26325;48.594;11.650;2023-01-29T07:40:51;97624.59;;;1.14
40624;BMP280;26325;48.594;11.650;2023-01-29T07:43:19;97622.56;;;1.18
40624;BMP280;26325;48.594;11.650;2023-01-29T07:45:45;97624.94;;;1.19
40624;BMP280;26325;48.594;11.650;2023-01-29T07:48:12;97619.22;;;1.17
40624;BMP280;26325;48.594;11.650;2023-01-29T07:50:38;97621.91;;;1.16
40624;BMP280;26325;48.594;11.650;2023-01-29T07:53:04;97622.06;;;1.22
40624;BMP280;26325;48.594;11.650;2023-01-29T07:55:31;97628.44;;;1.26
40624;BMP280;26325;48.594;11.650;2023-01-29T07:58:00;97633.53;;;1.26
40624;BMP280;26325;48.594;11.650;2023-01-29T08:00:26;97630.84;;;1.28
40624;BMP280;26325;48.594;11.650;2023-01-29T08:02:52;97638.28;;;1.29
40624;BMP280;26325;48.594;11.650;2023-01-29T08:05:20;97637.81;;;1.26
40624;BMP280;26325;48.594;11.650;2023-01-29T08:07:52;97648.47;;;1.29
40624;BMP280;26325;48.594;11.650;2023-01-29T08:10:18;97640.53;;;1.24
40624;BMP280;26325;48.594;11.650;2023-01-29T08:12:44;97639.41;;;1.34
40624;BMP280;26325;48.594;11.650;2023-01-29T08:15:10;97643.22;;;1.31
40624;BMP280;26325;48.594;11.650;2023-01-29T08:17:35;97641.00;;;1.28
40624;BMP280;26325;48.594;11.650;2023-01-29T08:20:05;97643.72;;;1.34
40624;BMP280;26325;48.594;11.650;2023-01-29T08:22:31;97645.94;;;1.37
40624;BMP280;26325;48.594;11.650;2023-01-29T08:24:57;97656.94;;;1.37
40624;BMP280;26325;48.594;11.650;2023-01-29T08:27:22;97653.56;;;1.29
40624;BMP280;26325;48.594;11.650;2023-01-29T08:29:51;97672.03;;;1.39
40624;BMP280;26325;48.594;11.650;2023-01-29T08:32:16;97676.66;;;1.43
40624;BMP280;26325;48.594;11.650;2023-01-29T08:34:42;97675.22;;;1.49
40624;BMP280;26325;48.594;11.650;2023-01-29T08:37:07;97676.16;;;1.40
40624;BMP280;26325;48.594;11.650;2023-01-29T08:39:33;97682.69;;;1.42
40624;BMP280;26325;48.594;11.650;2023-01-29T08:41:58;97687.00;;;1.50
40624;BMP280;26325;48.594;11.650;2023-01-29T08:44:24;97688.28;;;1.53
40624;BMP280;26325;48.594;11.650;2023-01-29T08:46:50;97686.34;;;1.55
40624;BMP280;26325;48.594;11.650;2023-01-29T08:49:15;97686.19;;;1.57
40624;BMP280;26325;48.594;11.650;2023-01-29T08:51:43;97678.88;;;1.54
40624;BMP280;26325;48.594;11.650;2023-01-29T08:54:09;97675.19;;;1.64
40624;BMP280;26325;48.594;11.650;2023-01-29T08:56:34;97677.44;;;1.67
40624;BMP280;26325;48.594;11.650;2023-01-29T08:59:02;97683.81;;;1.71
40624;BMP280;26325;48.594;11.650;2023-01-29T09:01:27;97675.69;;;1.75
40624;BMP280;26325;48.594;11.650;2023-01-29T09:03:53;97682.22;;;1.78
40624;BMP280;26325;48.594;11.650;2023-01-29T09:06:19;97679.97;;;1.83
40624;BMP280;26325;48.594;11.650;2023-01-29T09:08:44;97683.47;;;1.89
40624;BMP280;26325;48.594;11.650;2023-01-29T09:11:10;97690.50;;;1.88
40624;BMP280;26325;48.594;11.650;2023-01-29T09:13:38;97687.59;;;1.90
40624;BMP280;26325;48.594;11.650;2023-01-29T09:16:04;97686.97;;;1.96
40624;BMP280;26325;48.594;11.650;2023-01-29T09:18:30;97693.31;;;2.00
40624;BMP280;26325;48.594;11.650;2023-01-29T09:20:56;97697.31;;;2.03
40624;BMP280;26325;48.594;11.650;2023-01-29T09:23:22;97698.28;;;1.86
40624;BMP280;26325;48.594;11.650;2023-01-29T09:25:48;97700.81;;;1.94
40624;BMP280;26325;48.594;11.650;2023-01-29T09:28:14;97711.16;;;2.00
40624;BMP280;26325;48.594;11.650;2023-01-29T09:30:42;97708.28;;;2.11
40624;BMP280;26325;48.594;11.650;2023-01-29T09:33:13;97711.66;;;2.04
40624;BMP280;26325;48.594;11.650;2023-01-29T09:35:40;97710.03;;;2.10
40624;BMP280;26325;48.594;11.650;2023-01-29T09:38:09;97699.19;;;2.16
40624;BMP280;26325;48.594;11.650;2023-01-29T09:40:59;97703.81;;;2.13
40624;BMP280;26325;48.594;11.650;2023-01-29T09:43:45;97696.00;;;2.22
40624;BMP280;26325;48.594;11.650;2023-01-29T09:46:22;97700.63;;;2.19
40624;BMP280;26325;48.594;11.650;2023-01-29T09:49:00;97692.31;;;2.25
40624;BMP280;26325;48.594;11.650;2023-01-29T09:51:50;97696.16;;;2.21
40624;BMP280;26325;48.594;11.650;2023-01-29T09:55:06;97703.78;;;2.28
40624;BMP280;26325;48.594;11.650;2023-01-29T09:57:50;97703.13;;;2.34
40624;BMP280;26325;48.594;11.650;2023-01-29T10:00:30;97694.19;;;2.38
40624;BMP280;26325;48.594;11.650;2023-01-29T10:11:47;97698.59;;;2.52
40624;BMP280;26325;48.594;11.650;2023-01-29T10:14:29;97689.03;;;2.54
40624;BMP280;26325;48.594;11.650;2023-01-29T10:23:23;97671.75;;;2.71
40624;BMP280;26325;48.594;11.650;2023-01-29T10:25:52;97675.94;;;2.65
40624;BMP280;26325;48.594;11.650;2023-01-29T10:28:36;97668.72;;;2.68
40624;BMP280;26325;48.594;11.650;2023-01-29T10:31:32;97674.84;;;2.51
40624;BMP280;26325;48.594;11.650;2023-01-29T10:36:47;97665.72;;;2.65
40624;BMP280;26325;48.594;11.650;2023-01-29T10:39:22;97652.44;;;2.69
40624;BMP280;26325;48.594;11.650;2023-01-29T10:45:28;97649.78;;;2.92
40624;BMP280;26325;48.594;11.650;2023-01-29T10:54:17;97643.03;;;3.21
40624;BMP280;26325;48.594;11.650;2023-01-29T10:57:41;97631.19;;;3.06
40624;BMP280;26325;48.594;11.650;2023-01-29T11:00:10;97628.00;;;3.04
40624;BMP280;26325;48.594;11.650;2023-01-29T11:02:49;97622.41;;;3.08
40624;BMP280;26325;48.594;11.650;2023-01-29T11:05:40;97624.00;;;3.09
40624;BMP280;26325;48.594;11.650;2023-01-29T11:08:15;97616.16;;;2.89
40624;BMP280;26325;48.594;11.650;2023-01-29T11:14:23;97619.38;;;3.05
40624;BMP280;26325;48.594;11.650;2023-01-29T11:16:51;97618.84;;;3.17
40624;BMP280;26325;48.594;11.650;2023-01-29T11:19:35;97614.34;;;2.67
40624;BMP280;26325;48.594;11.650;2023-01-29T11:22:01;97604.59;;;2.41
40624;BMP280;26325;48.594;11.650;2023-01-29T11:24:28;97595.78;;;2.51
40624;BMP280;26325;48.594;11.650;2023-01-29T11:26:58;97604.06;;;2.16
40624;BMP280;26325;48.594;11.650;2023-01-29T11:32:27;97581.19;;;2.00
40624;BMP280;26325;48.594;11.650;2023-01-29T11:35:02;97583.72;;;2.08
40624;BMP280;26325;48.594;11.650;2023-01-29T11:37:40;97563.69;;;1.89
40624;BMP280;26325;48.594;11.650;2023-01-29T11:42:47;97573.53;;;2.00
40624;BMP280;26325;48.594;11.650;2023-01-29T11:47:49;97565.91;;;2.38
40624;BMP280;26325;48.594;11.650;2023-01-29T11:50:25;97566.41;;;2.63
40624;BMP280;26325;48.594;11.650;2023-01-29T11:52:52;97569.16;;;2.76
40624;BMP280;26325;48.594;11.650;2023-01-29T11:55:30;97576.22;;;2.74
40624;BMP280;26325;48.594;11.650;2023-01-29T11:58:05;97581.69;;;2.63
40624;BMP280;26325;48.594;11.650;2023-01-29T12:00:38;97580.84;;;2.70
40624;BMP280;26325;48.594;11.650;2023-01-29T12:03:50;97579.56;;;2.15
40624;BMP280;26325;48.594;11.650;2023-01-29T12:06:21;97579.56;;;2.15
40624;BMP280;26325;48.594;11.650;2023-01-29T12:09:00;97571.03;;;1.92
40624;BMP280;26325;48.594;11.650;2023-01-29T12:11:34;97567.00;;;1.60
40624;BMP280;26325;48.594;11.650;2023-01-29T12:14:03;97564.44;;;1.60
40624;BMP280;26325;48.594;11.650;2023-01-29T12:16:53;97556.81;;;1.60
40624;BMP280;26325;48.594;11.650;2023-01-29T12:25:02;97551.09;;;1.51
40624;BMP280;26325;48.594;11.650;2023-01-29T12:27:47;97547.91;;;1.49
40624;BMP280;26325;48.594;11.650;2023-01-29T12:30:39;97536.19;;;1.16
40624;BMP280;26325;48.594;11.650;2023-01-29T12:33:33;97526.50;;;1.20
40624;BMP280;26325;48.594;11.650;2023-01-29T12:36:43;97525.53;;;1.29
40624;BMP280;26325;48.594;11.650;2023-01-29T12:39:19;97516.94;;;1.06
40624;BMP280;26325;48.594;11.650;2023-01-29T12:42:00;97517.84;;;1.44
40624;BMP280;26325;48.594;11.650;2023-01-29T12:47:05;97493.31;;;1.51
40624;BMP280;26325;48.594;11.650;2023-01-29T12:49:37;97487.09;;;1.61
40624;BMP280;26325;48.594;11.650;2023-01-29T12:52:35;97482.47;;;1.94
40624;BMP280;26325;48.594;11.650;2023-01-29T12:55:29;97480.47;;;2.12
40624;BMP280;26325;48.594;11.650;2023-01-29T12:58:02;97480.25;;;1.91
40624;BMP280;26325;48.594;11.650;2023-01-29T13:00:36;97484.78;;;1.74
40624;BMP280;26325;48.594;11.650;2023-01-29T13:03:28;97483.41;;;1.56
40624;BMP280;26325;48.594;11.650;2023-01-29T13:06:05;97481.75;;;1.33
40624;BMP280;26325;48.594;11.650;2023-01-29T13:08:40;97479.66;;;1.44
40624;BMP280;26325;48.594;11.650;2023-01-29T13:11:17;97481.00;;;1.70
40624;BMP280;26325;48.594;11.650;2023-01-29T13:13:57;97484.19;;;1.72
40624;BMP280;26325;48.594;11.650;2023-01-29T13:16:29;97487.34;;;1.74
40624;BMP280;26325;48.594;11.650;2023-01-29T13:19:02;97486.03;;;1.86
40624;BMP280;26325;48.594;11.650;2023-01-29T13:21:50;97482.56;;;2.08
40624;BMP280;26325;48.594;11.650;2023-01-29T13:24:20;97467.75;;;2.12
40624;BMP280;26325;48.594;11.650;2023-01-29T13:26:47;97469.56;;;2.26
40624;BMP280;26325;48.594;11.650;2023-01-29T13:29:32;97462.31;;;2.37
40624;BMP280;26325;48.594;11.650;2023-01-29T13:31:59;97471.72;;;2.36
40624;BMP280;26325;48.594;11.650;2023-01-29T13:34:29;97468.50;;;2.42
40624;BMP280;26325;48.594;11.650;2023-01-29T13:37:37;97459.88;;;2.43
40624;BMP280;26325;48.594;11.650;2023-01-29T13:40:28;97450.69;;;2.34
40624;BMP280;26325;48.594;11.650;2023-01-29T13:42:54;97451.66;;;2.33
40624;BMP280;26325;48.594;11.650;2023-01-29T13:45:26;97449.47;;;2.30
40624;BMP280;26325;48.594;11.650;2023-01-29T13:50:50;97450.53;;;2.14
40624;BMP280;26325;48.594;11.650;2023-01-29T13:53:28;97451.59;;;2.19
40624;BMP280;26325;48.594;11.650;2023-01-29T13:58:58;97438.13;;;2.11
40624;BMP280;26325;48.594;11.650;2023-01-29T14:04:32;97451.13;;;2.16
40624;BMP280;26325;48.594;11.650;2023-01-29T14:07:00;97452.97;;;2.29
40624;BMP280;26325;48.594;11.650;2023-01-29T14:17:25;97458.91;;;1.63
40624;BMP280;26325;48.594;11.650;2023-01-29T14:20:16;97467.47;;;1.70
40624;BMP280;26325;48.594;11.650;2023-01-29T14:22:43;97464.56;;;1.80
40624;BMP280;26325;48.594;11.650;2023-01-29T14:25:17;97472.56;;;1.99
40624;BMP280;26325;48.594;11.650;2023-01-29T14:27:47;97459.22;;;1.97
40624;BMP280;26325;48.594;11.650;2023-01-29T14:30:20;97454.03;;;2.13
40624;BMP280;26325;48.594;11.650;2023-01-29T14:32:48;97449.84;;;2.20
40624;BMP280;26325;48.594;11.650;2023-01-29T14:35:22;97445.66;;;2.27
40624;BMP280;26325;48.594;11.650;2023-01-29T14:37:52;97448.72;;;2.22
40624;BMP280;26325;48.594;11.650;2023-01-29T14:45:25;97431.38;;;2.18
40624;BMP280;26325;48.594;11.650;2023-01-29T14:53:41;97444.06;;;2.26
40624;BMP280;26325;48.594;11.650;2023-01-29T14:56:18;97439.53;;;2.13
40624;BMP280;26325;48.594;11.650;2023-01-29T15:05:51;97447.50;;;1.81
40624;BMP280;26325;48.594;11.650;2023-01-29T15:08:54;97449.59;;;1.77
40624;BMP280;26325;48.594;11.650;2023-01-29T15:11:50;97448.50;;;1.80
40624;BMP280;26325;48.594;11.650;2023-01-29T15:18:14;97430.34;;;1.75
40624;BMP280;26325;48.594;11.650;2023-01-29T15:20:46;97436.34;;;1.82
40624;BMP280;26325;48.594;11.650;2023-01-29T15:23:33;97428.13;;;1.80
40624;BMP280;26325;48.594;11.650;2023-01-29T15:26:42;97431.91;;;1.84
40624;BMP280;26325;48.594;11.650;2023-01-29T15:29:26;97425.16;;;1.90
40624;BMP280;26325;48.594;11.650;2023-01-29T15:31:52;97427.47;;;1.78
40624;BMP280;26325;48.594;11.650;2023-01-29T15:34:18;97428.31;;;1.71
40624;BMP280;26325;48.594;11.650;2023-01-29T15:40:30;97433.25;;;1.72
40624;BMP280;26325;48.594;11.650;2023-01-29T15:43:44;97430.22;;;1.69
40624;BMP280;26325;48.594;11.650;2023-01-29T15:49:53;97433.25;;;1.72
40624;BMP280;26325;48.594;11.650;2023-01-29T15:52:26;97426.22;;;1.74
40624;BMP280;26325;48.594;11.650;2023-01-29T15:54:56;97434.19;;;1.71
40624;BMP280;26325;48.594;11.650;2023-01-29T15:57:34;97430.06;;;1.70
40624;BMP280;26325;48.594;11.650;2023-01-29T16:00:03;97431.06;;;1.61
40624;BMP280;26325;48.594;11.650;2023-01-29T16:02:39;97428.66;;;1.60
40624;BMP280;26325;48.594;11.650;2023-01-29T16:05:22;97431.06;;;1.61
40624;BMP280;26325;48.594;11.650;2023-01-29T16:07:50;97424.72;;;1.50
40624;BMP280;26325;48.594;11.650;2023-01-29T16:10:28;97420.72;;;1.55
40624;BMP280;26325;48.594;11.650;2023-01-29T16:12:55;97416.91;;;1.59
40624;BMP280;26325;48.594;11.650;2023-01-29T16:15:53;97427.88;;;1.59
40624;BMP280;26325;48.594;11.650;2023-01-29T16:18:38;97416.66;;;1.46
40624;BMP280;26325;48.594;11.650;2023-01-29T16:21:32;97418.25;;;1.39
40624;BMP280;26325;48.594;11.650;2023-01-29T16:24:04;97424.16;;;1.32
40624;BMP280;26325;48.594;11.650;2023-01-29T16:26:42;97432.91;;;1.37
40624;BMP280;26325;48.594;11.650;2023-01-29T16:29:12;97434.53;;;1.23
40624;BMP280;26325;48.594;11.650;2023-01-29T16:31:38;97438.78;;;1.30
40624;BMP280;26325;48.594;11.650;2023-01-29T16:34:15;97441.81;;;1.33
40624;BMP280;26325;48.594;11.650;2023-01-29T16:36:46;97446.75;;;1.35
40624;BMP280;26325;48.594;11.650;2023-01-29T16:39:24;97445.63;;;1.30
40624;BMP280;26325;48.594;11.650;2023-01-29T16:45:03;97427.97;;;1.36
40624;BMP280;26325;48.594;11.650;2023-01-29T16:47:33;97436.44;;;1.21
40624;BMP280;26325;48.594;11.650;2023-01-29T16:50:22;97438.81;;;1.22
40624;BMP280;26325;48.594;11.650;2023-01-29T16:52:56;97433.13;;;1.20
40624;BMP280;26325;48.594;11.650;2023-01-29T16:55:24;97435.19;;;1.17
40624;BMP280;26325;48.594;11.650;2023-01-29T16:57:54;97440.75;;;1.20
40624;BMP280;26325;48.594;11.650;2023-01-29T17:00:28;97443.63;;;1.10
40624;BMP280;26325;48.594;11.650;2023-01-29T17:03:06;97449.97;;;1.13
40624;BMP280;26325;48.594;11.650;2023-01-29T17:05:34;97453.78;;;1.17
40624;BMP280;26325;48.594;11.650;2023-01-29T17:08:02;97455.38;;;1.26
40624;BMP280;26325;48.594;11.650;2023-01-29T17:10:30;97449.34;;;1.19